Time;durP1;ratioP1;P1;durP2;ratioP2;P2;SDS_P1;SDS_P2;PMS_P1;PMS_P2;Temp;Humidity;BMP_temperature;BMP_pressure;BME280_temperature;BME280_humidity;BME280_pressure;Samples;Min_cycle;Max_cycle;Signal;HPM_P1;HPM_P2
2023/05/30 00:01:13;;;;;;;1999.90;999.90;;;14.50;59.70;;;;;;5051390;28;20220;-72
2023/05/30 00:03:39;;;;;;;1999.90;999.90;;;14.50;63.20;;;;;;5051731;28;20174;-72
2023/05/30 00:06:05;;;;;;;1999.90;999.90;;;14.30;69.00;;;;;;5051626;28;20410;-72
2023/05/30 00:08:31;;;;;;;1999.90;999.90;;;14.30;73.00;;;;;;5051881;28;20416;-72
2023/05/30 00:10:56;;;;;;;1999.90;999.90;;;14.20;78.10;;;;;;5051368;28;20830;-72
2023/05/30 00:13:22;;;;;;;1999.90;999.90;;;14.20;82.50;;;;;;5051439;28;20180;-72
2023/05/30 00:15:48;;;;;;;1999.90;999.90;;;14.10;87.00;;;;;;5051523;28;20164;-72
2023/05/30 00:18:14;;;;;;;1999.90;999.90;;;14.00;90.20;;;;;;5051512;28;20410;-72
2023/05/30 00:20:40;;;;;;;1999.90;999.90;;;14.00;92.40;;;;;;5051382;28;20935;-71
2023/05/30 00:23:05;;;;;;;1999.90;999.90;;;13.90;94.10;;;;;;5051216;28;20632;-72
2023/05/30 00:25:32;;;;;;;1999.90;999.90;;;13.80;95.10;;;;;;5051468;28;20761;-72
2023/05/30 00:27:58;;;;;;;1999.90;999.90;;;13.80;96.50;;;;;;5051481;28;20301;-71
2023/05/30 00:30:25;;;;;;;1999.90;999.90;;;13.70;98.30;;;;;;5054095;28;20454;-72
2023/05/30 00:32:51;;;;;;;1999.90;999.90;;;13.60;99.20;;;;;;5054924;28;20456;-72
2023/05/30 00:35:16;;;;;;;1999.90;999.90;;;13.60;99.90;;;;;;5055070;28;20398;-72
2023/05/30 00:37:42;;;;;;;1999.90;999.90;;;13.60;99.90;;;;;;5055092;28;20171;-71
2023/05/30 00:40:08;;;;;;;1999.90;999.90;;;13.50;99.90;;;;;;5055072;28;20187;-71
2023/05/30 00:42:34;;;;;;;1999.90;999.90;;;13.50;99.90;;;;;;5054872;28;20167;-72
2023/05/30 00:44:59;;;;;;;1999.90;999.90;;;13.50;99.90;;;;;;5055042;28;20421;-72
2023/05/30 00:47:25;;;;;;;1999.90;999.90;;;13.40;99.90;;;;;;5054872;28;20168;-72
2023/05/30 00:49:52;;;;;;;1999.90;999.90;;;13.40;99.90;;;;;;5054731;28;20757;-72
2023/05/30 00:52:17;;;;;;;1999.90;999.90;;;13.30;99.90;;;;;;5054626;28;20915;-71
2023/05/30 00:54:45;;;;;;;1999.90;999.90;;;13.20;99.90;;;;;;5054796;28;20486;-71
2023/05/30 00:57:12;;;;;;;1999.90;999.90;;;13.20;99.90;;;;;;5054803;28;20177;-71
2023/05/30 00:59:37;;;;;;;1999.90;999.90;;;13.10;99.90;;;;;;5054675;28;20464;-71
2023/05/30 01:02:03;;;;;;;1999.90;999.90;;;13.10;99.90;;;;;;5054378;28;20912;-71
2023/05/30 01:04:29;;;;;;;1999.90;999.90;;;13.10;99.90;;;;;;5054639;28;20170;-71
2023/05/30 01:06:55;;;;;;;1999.90;999.90;;;13.00;99.90;;;;;;5054764;28;20411;-71
2023/05/30 01:09:21;;;;;;;1999.90;999.90;;;12.90;99.90;;;;;;5054448;28;20206;-72
2023/05/30 01:12:11;;;;;;;1999.90;999.90;;;12.90;99.90;;;;;;5054172;28;20416;-71
2023/05/30 01:14:57;;;;;;;1999.90;999.90;;;12.90;99.90;;;;;;5054460;28;20811;-71
2023/05/30 01:17:50;;;;;;;1999.90;999.90;;;12.80;99.90;;;;;;5054381;28;20918;-72
2023/05/30 01:20:20;;;;;;;1999.90;999.90;;;12.80;99.90;;;;;;5054305;28;20418;-71
2023/05/30 01:23:14;;;;;;;1999.90;999.90;;;12.80;99.90;;;;;;5054066;28;20405;-71
2023/05/30 01:26:05;;;;;;;1999.90;999.90;;;12.70;99.90;;;;;;5054260;28;20397;-71
2023/05/30 01:28:33;;;;;;;1999.90;999.90;;;12.70;99.90;;;;;;5054198;28;20437;-71
2023/05/30 01:31:01;;;;;;;1999.90;999.90;;;12.60;99.90;;;;;;5053659;28;20513;-72
2023/05/30 01:33:27;;;;;;;1999.90;999.90;;;12.60;99.90;;;;;;5054087;28;20398;-71
2023/05/30 01:35:53;;;;;;;1999.90;999.90;;;12.50;99.90;;;;;;5053994;28;20398;-71
2023/05/30 01:38:19;;;;;;;1999.90;999.90;;;12.50;99.90;;;;;;5054046;28;20483;-71
2023/05/30 01:40:51;;;;;;;1999.90;999.90;;;12.50;99.90;;;;;;5053237;28;20201;-71
2023/05/30 01:43:26;;;;;;;1999.90;999.90;;;12.40;99.90;;;;;;5053828;28;20167;-71
2023/05/30 01:46:01;;;;;;;1999.90;999.90;;;12.40;99.90;;;;;;5053881;28;20392;-71
2023/05/30 01:48:56;;;;;;;1999.90;999.90;;;12.30;99.90;;;;;;5053858;28;20408;-70
2023/05/30 01:51:44;;;;;;;1999.90;999.90;;;12.30;99.90;;;;;;5053360;28;20453;-71
2023/05/30 01:54:14;;;;;;;1999.90;999.90;;;12.30;99.90;;;;;;5012688;28;20414;-72
2023/05/30 01:56:44;;;;;;;1999.90;999.90;;;12.20;99.90;;;;;;5053716;28;20421;-72
2023/05/30 01:59:10;;;;;;;1999.90;999.90;;;12.10;99.90;;;;;;5053658;28;20402;-71
2023/05/30 02:01:36;;;;;;;1999.90;999.90;;;12.10;99.90;;;;;;5053306;28;20595;-71
2023/05/30 02:04:02;;;;;;;1999.90;999.90;;;12.10;99.90;;;;;;5053858;28;20517;-71
2023/05/30 02:06:28;;;;;;;1999.90;999.90;;;12.10;99.90;;;;;;5053509;28;20740;-71
2023/05/30 02:08:53;;;;;;;1999.90;999.90;;;12.10;99.90;;;;;;5053411;28;20419;-71
2023/05/30 02:11:19;;;;;;;1999.90;999.90;;;12.00;99.90;;;;;;5053052;28;20225;-70
2023/05/30 02:13:45;;;;;;;1999.90;999.90;;;12.00;99.90;;;;;;5053327;28;20190;-71
2023/05/30 02:16:12;;;;;;;1999.90;999.90;;;12.00;99.90;;;;;;5053297;28;20177;-71
2023/05/30 02:18:40;;;;;;;1999.90;999.90;;;11.90;99.90;;;;;;5042376;28;20421;-71
2023/05/30 02:21:06;;;;;;;1999.90;999.90;;;11.90;99.90;;;;;;5033067;28;20460;-71
2023/05/30 02:23:32;;;;;;;1999.90;999.90;;;11.90;99.90;;;;;;5033203;28;20809;-72
2023/05/30 02:25:57;;;;;;;1999.90;999.90;;;11.80;99.90;;;;;;5033200;28;20422;-71
2023/05/30 02:28:23;;;;;;;1999.90;999.90;;;11.80;99.90;;;;;;5033125;28;20172;-71
2023/05/30 02:30:49;;;;;;;1999.90;999.90;;;11.80;99.90;;;;;;5032942;28;20203;-71
2023/05/30 02:33:14;;;;;;;1999.90;999.90;;;11.70;99.90;;;;;;5032960;28;20164;-71
2023/05/30 02:35:40;;;;;;;1999.90;999.90;;;11.60;99.90;;;;;;5033028;28;20165;-71
2023/05/30 02:38:05;;;;;;;1999.90;999.90;;;11.70;99.90;;;;;;5032936;28;20204;-72
2023/05/30 02:40:31;;;;;;;1999.90;999.90;;;11.60;99.90;;;;;;5032848;28;20192;-71
2023/05/30 02:42:57;;;;;;;1999.90;999.90;;;11.60;99.90;;;;;;5032610;28;20549;-72
2023/05/30 02:45:22;;;;;;;1999.90;999.90;;;11.50;99.90;;;;;;5032835;28;20167;-72
2023/05/30 02:47:48;;;;;;;1999.90;999.90;;;11.40;99.90;;;;;;5032741;28;20171;-71
2023/05/30 02:50:13;;;;;;;1999.90;999.90;;;11.20;99.90;;;;;;5032615;28;20217;-71
2023/05/30 02:52:39;;;;;;;1999.90;999.90;;;11.20;99.90;;;;;;5031459;28;20536;-72
2023/05/30 02:55:05;;;;;;;1999.90;999.90;;;11.20;99.90;;;;;;5032672;28;20195;-71
2023/05/30 02:57:32;;;;;;;1999.90;999.90;;;11.30;99.90;;;;;;5032538;28;20180;-71
2023/05/30 02:59:58;;;;;;;1999.90;999.90;;;11.20;99.90;;;;;;5032522;28;20791;-72
2023/05/30 03:02:23;;;;;;;1999.90;999.90;;;11.20;99.90;;;;;;5032426;28;20495;-71
2023/05/30 03:04:49;;;;;;;1999.90;999.90;;;11.30;99.90;;;;;;5032447;28;20456;-71
2023/05/30 03:07:18;;;;;;;1999.90;999.90;;;11.20;99.90;;;;;;5032428;28;20770;-71
2023/05/30 03:09:44;;;;;;;1999.90;999.90;;;11.20;99.90;;;;;;5032264;28;20208;-71
2023/05/30 03:12:10;;;;;;;1999.90;999.90;;;11.20;99.90;;;;;;5032064;28;20500;-72
2023/05/30 03:14:35;;;;;;;1999.90;999.90;;;11.20;99.90;;;;;;5032315;28;20518;-71
2023/05/30 03:17:02;;;;;;;1999.90;999.90;;;11.20;99.90;;;;;;5032352;28;20223;-71
2023/05/30 03:19:28;;;;;;;1999.90;999.90;;;11.20;99.90;;;;;;5057192;22;20308;-69
2023/05/30 03:21:54;;;;;;;1999.90;999.90;;;11.20;99.90;;;;;;5051969;28;20431;-68
2023/05/30 03:24:20;;;;;;;1999.90;999.90;;;11.10;99.90;;;;;;5052192;28;20160;-70
2023/05/30 03:26:45;;;;;;;1999.90;999.90;;;11.20;99.90;;;;;;5052119;28;20227;-68
2023/05/30 03:29:11;;;;;;;1999.90;999.90;;;11.10;99.90;;;;;;5051965;28;20196;-68
2023/05/30 03:31:36;;;;;;;1999.90;999.90;;;11.10;99.90;;;;;;5051787;28;20223;-68
2023/05/30 03:34:02;;;;;;;1999.90;999.90;;;11.10;99.90;;;;;;5052058;28;20171;-70
2023/05/30 03:36:28;;;;;;;1999.90;999.90;;;11.10;99.90;;;;;;5051905;28;20192;-69
2023/05/30 03:38:54;;;;;;;1999.90;999.90;;;11.20;99.90;;;;;;5051910;28;20183;-70
2023/05/30 03:41:20;;;;;;;1999.90;999.90;;;11.20;99.90;;;;;;5051803;28;20169;-68
2023/05/30 03:43:46;;;;;;;1999.90;999.90;;;11.20;99.90;;;;;;5051854;28;20426;-68
2023/05/30 03:46:15;;;;;;;1999.90;999.90;;;11.20;99.90;;;;;;5050647;28;20418;-68
2023/05/30 03:48:44;;;;;;;1999.90;999.90;;;11.20;99.90;;;;;;5051802;28;20427;-68
2023/05/30 03:51:11;;;;;;;1999.90;999.90;;;11.20;99.90;;;;;;5051571;28;20447;-68
2023/05/30 03:53:37;;;;;;;1999.90;999.90;;;11.20;99.90;;;;;;5051906;28;20404;-68
2023/05/30 03:56:02;;;;;;;1999.90;999.90;;;11.20;99.90;;;;;;5051843;28;20402;-69
2023/05/30 03:58:28;;;;;;;1999.90;999.90;;;11.20;99.90;;;;;;5051757;28;20203;-68
2023/05/30 04:00:54;;;;;;;1999.90;999.90;;;11.10;99.90;;;;;;5051572;28;20611;-68
2023/05/30 04:03:19;;;;;;;1999.90;999.90;;;11.20;99.90;;;;;;5051826;28;20176;-69
2023/05/30 04:05:48;;;;;;;1999.90;999.90;;;11.10;99.90;;;;;;5055376;28;20168;-68
2023/05/30 04:08:14;;;;;;;1999.90;999.90;;;11.20;99.90;;;;;;5055743;28;20173;-68
2023/05/30 04:10:40;;;;;;;1999.90;999.90;;;11.20;99.90;;;;;;5055701;28;20446;-68
2023/05/30 04:13:06;;;;;;;1999.90;999.90;;;11.20;99.90;;;;;;5055402;28;20404;-69
2023/05/30 04:15:33;;;;;;;1999.90;999.90;;;11.20;99.90;;;;;;5055618;28;20418;-68
2023/05/30 04:18:00;;;;;;;1999.90;999.90;;;11.20;99.90;;;;;;5055676;28;20935;-68
2023/05/30 04:20:26;;;;;;;1999.90;999.90;;;11.10;99.90;;;;;;5055282;28;20452;-68
2023/05/30 04:22:51;;;;;;;1999.90;999.90;;;11.20;99.90;;;;;;5055259;28;20418;-69
2023/05/30 04:25:17;;;;;;;1999.90;999.90;;;11.20;99.90;;;;;;5055528;28;20172;-68
2023/05/30 04:27:43;;;;;;;1999.90;999.90;;;11.20;99.90;;;;;;5055410;28;20234;-68
2023/05/30 04:30:11;;;;;;;1999.90;999.90;;;11.20;99.90;;;;;;5055188;28;20457;-69
2023/05/30 04:32:37;;;;;;;1999.90;999.90;;;11.20;99.90;;;;;;5054927;28;20410;-67
2023/05/30 04:35:04;;;;;;;1999.90;999.90;;;11.30;99.90;;;;;;5055263;28;20420;-68
2023/05/30 04:37:29;;;;;;;1999.90;999.90;;;11.30;99.90;;;;;;5055292;28;20192;-68
2023/05/30 04:39:58;;;;;;;1999.90;999.90;;;11.40;99.90;;;;;;5055166;28;20824;-68
2023/05/30 04:42:27;;;;;;;1999.90;999.90;;;11.40;99.90;;;;;;5054826;28;20170;-68
2023/05/30 04:44:54;;;;;;;1999.90;999.90;;;11.50;99.90;;;;;;5055075;28;20456;-69
2023/05/30 04:47:23;;;;;;;1999.90;999.90;;;11.50;99.90;;;;;;5055132;28;20408;-68
2023/05/30 04:50:00;;;;;;;1999.90;999.90;;;11.60;99.90;;;;;;5054930;28;20457;-69
2023/05/30 04:52:26;;;;;;;1999.90;999.90;;;11.60;99.90;;;;;;5054795;28;20935;-68
2023/05/30 04:54:52;;;;;;;1999.90;999.90;;;11.60;99.90;;;;;;5054913;28;20403;-69
2023/05/30 04:57:19;;;;;;;1999.90;999.90;;;11.60;99.90;;;;;;5054881;28;20456;-68
2023/05/30 04:59:44;;;;;;;1999.90;999.90;;;11.60;99.90;;;;;;5054679;28;20435;-69
2023/05/30 05:02:10;;;;;;;1999.90;999.90;;;11.60;99.90;;;;;;5054490;28;20416;-69
2023/05/30 05:04:36;;;;;;;1999.90;999.90;;;11.70;99.90;;;;;;5054781;28;20166;-69
2023/05/30 05:07:02;;;;;;;1999.90;999.90;;;11.80;99.90;;;;;;5054669;28;20177;-69
2023/05/30 05:09:27;;;;;;;1999.90;999.90;;;11.80;99.90;;;;;;5054433;28;20436;-68
2023/05/30 05:11:56;;;;;;;1999.90;999.90;;;11.80;99.90;;;;;;5054331;28;20172;-69
2023/05/30 05:14:22;;;;;;;1999.90;999.90;;;11.90;99.90;;;;;;5054638;28;20200;-69
2023/05/30 05:16:48;;;;;;;1999.90;999.90;;;11.90;99.90;;;;;;5053482;28;20468;-68
2023/05/30 05:19:13;;;;;;;1999.90;999.90;;;12.00;99.90;;;;;;5054294;28;20448;-68
2023/05/30 05:21:39;;;;;;;1999.90;999.90;;;12.00;99.90;;;;;;5054178;28;20404;-68
2023/05/30 05:24:05;;;;;;;1999.90;999.90;;;12.00;99.90;;;;;;5054355;28;20165;-68
2023/05/30 05:26:31;;;;;;;1999.90;999.90;;;12.00;99.90;;;;;;5054449;28;20651;-69
2023/05/30 05:28:56;;;;;;;1999.90;999.90;;;12.00;99.90;;;;;;5054226;28;20454;-68
2023/05/30 05:31:22;;;;;;;1999.90;999.90;;;12.00;99.90;;;;;;5053978;28;20204;-68
2023/05/30 05:33:48;;;;;;;1999.90;999.90;;;12.00;99.90;;;;;;5054256;28;20172;-68
2023/05/30 05:36:14;;;;;;;1999.90;999.90;;;12.00;99.90;;;;;;5054227;28;20416;-67
2023/05/30 05:38:40;;;;;;;1999.90;999.90;;;12.00;99.90;;;;;;5054162;28;20681;-68
2023/05/30 05:41:05;;;;;;;1999.90;999.90;;;11.90;99.90;;;;;;5053777;28;20412;-68
2023/05/30 05:43:31;;;;;;;1999.90;999.90;;;12.00;99.90;;;;;;5054061;28;20506;-69
2023/05/30 05:45:57;;;;;;;1999.90;999.90;;;12.00;99.90;;;;;;5053981;28;20173;-68
2023/05/30 05:48:23;;;;;;;1999.90;999.90;;;12.10;99.90;;;;;;5053827;28;20637;-68
2023/05/30 05:50:48;;;;;;;1999.90;999.90;;;12.10;99.90;;;;;;5053675;28;20582;-68
2023/05/30 05:53:14;;;;;;;1999.90;999.90;;;12.10;99.90;;;;;;5053664;28;20172;-68
2023/05/30 05:55:39;;;;;;;1999.90;999.90;;;12.10;99.90;;;;;;5053843;28;20168;-68
2023/05/30 05:58:05;;;;;;;1999.90;999.90;;;12.10;99.90;;;;;;5053663;28;20174;-69
2023/05/30 06:00:32;;;;;;;1999.90;999.90;;;12.20;99.90;;;;;;5053658;28;20681;-68
2023/05/30 06:02:58;;;;;;;1999.90;999.90;;;12.20;99.90;;;;;;5053448;28;20181;-69
2023/05/30 06:05:24;;;;;;;1999.90;999.90;;;12.30;99.90;;;;;;5053673;28;20502;-69
2023/05/30 06:07:50;;;;;;;1999.90;999.90;;;12.30;99.90;;;;;;5053641;28;20502;-69
2023/05/30 06:10:16;;;;;;;1999.90;999.90;;;12.40;99.90;;;;;;5053310;28;20203;-69
2023/05/30 06:12:41;;;;;;;1999.90;999.90;;;12.40;99.90;;;;;;5053112;28;20202;-68
2023/05/30 06:15:07;;;;;;;1999.90;999.90;;;12.50;99.90;;;;;;5053607;28;20177;-69
2023/05/30 06:17:34;;;;;;;1999.90;999.90;;;12.60;99.90;;;;;;5053543;28;20193;-68
2023/05/30 06:19:59;;;;;;;1999.90;999.90;;;12.70;99.90;;;;;;5053113;28;20452;-68
2023/05/30 06:22:25;;;;;;;1999.90;999.90;;;12.80;99.90;;;;;;5053036;28;20417;-69
2023/05/30 06:24:51;;;;;;;1999.90;999.90;;;12.70;99.90;;;;;;5053150;28;20267;-69
2023/05/30 06:27:16;;;;;;;1999.90;999.90;;;12.80;99.90;;;;;;5052940;28;20629;-68
2023/05/30 06:29:42;;;;;;;1999.90;999.90;;;12.90;99.90;;;;;;5053021;28;20626;-68
2023/05/30 06:32:09;;;;;;;1999.90;999.90;;;12.90;99.90;;;;;;5052895;28;20658;-69
2023/05/30 06:34:34;;;;;;;1999.90;999.90;;;12.90;99.90;;;;;;5053068;28;20448;-69
2023/05/30 06:37:00;;;;;;;1999.90;999.90;;;12.90;99.90;;;;;;5053053;28;20171;-68
2023/05/30 06:39:26;;;;;;;1999.90;999.90;;;12.90;99.90;;;;;;5052839;28;20203;-68
2023/05/30 06:41:52;;;;;;;1999.90;999.90;;;13.00;99.90;;;;;;5052750;28;20259;-68
2023/05/30 06:44:17;;;;;;;1999.90;999.90;;;13.10;99.90;;;;;;5052903;28;20262;-69
2023/05/30 06:46:43;;;;;;;1999.90;999.90;;;13.30;99.90;;;;;;5052872;28;20433;-69
2023/05/30 06:49:09;;;;;;;1999.90;999.90;;;13.00;99.90;;;;;;5052664;28;20214;-68
2023/05/30 06:51:36;;;;;;;1999.90;999.90;;;13.10;99.90;;;;;;5052383;28;20460;-67
2023/05/30 06:54:01;;;;;;;1999.90;999.90;;;13.00;99.90;;;;;;5052674;28;20416;-69
2023/05/30 06:56:27;;;;;;;1999.90;999.90;;;13.20;99.90;;;;;;5052596;28;20871;-69
2023/05/30 06:58:54;;;;;;;1999.90;999.90;;;13.20;99.90;;;;;;5052544;28;20425;-69
2023/05/30 07:01:20;;;;;;;1999.90;999.90;;;13.30;99.90;;;;;;5052326;28;20548;-68
2023/05/30 07:03:45;;;;;;;1999.90;999.90;;;13.40;99.90;;;;;;5052572;28;20413;-68
2023/05/30 07:06:12;;;;;;;1999.90;999.90;;;13.70;99.90;;;;;;5052468;28;20178;-69
2023/05/30 07:08:38;;;;;;;1999.90;999.90;;;13.60;99.90;;;;;;5052386;28;20249;-69
2023/05/30 07:11:05;;;;;;;1999.90;999.90;;;13.70;99.90;;;;;;5051912;28;20446;-68
2023/05/30 07:13:30;;;;;;;1999.90;999.90;;;13.80;99.90;;;;;;5052449;28;20397;-68
2023/05/30 07:15:56;;;;;;;1999.90;999.90;;;13.90;99.90;;;;;;5052306;28;20459;-68
2023/05/30 07:18:21;;;;;;;1999.90;999.90;;;14.00;99.90;;;;;;5052121;28;20652;-68
2023/05/30 07:20:47;;;;;;;1999.90;999.90;;;14.10;99.90;;;;;;5052271;28;20175;-68
2023/05/30 07:23:14;;;;;;;1999.90;999.90;;;14.10;99.90;;;;;;5051899;28;20178;-69
2023/05/30 07:25:39;;;;;;;1999.90;999.90;;;14.30;99.90;;;;;;5052119;28;20182;-68
2023/05/30 07:28:05;;;;;;;1999.90;999.90;;;14.30;99.90;;;;;;5052324;28;20407;-68
2023/05/30 07:30:31;;;;;;;1999.90;999.90;;;14.30;99.90;;;;;;5052070;28;20203;-70
2023/05/30 07:32:58;;;;;;;1999.90;999.90;;;14.40;99.90;;;;;;5033806;28;20178;-68
2023/05/30 07:35:23;;;;;;;1999.90;999.90;;;14.50;99.90;;;;;;5052061;28;20417;-68
2023/05/30 07:37:51;;;;;;;1999.90;999.90;;;14.50;99.90;;;;;;5051894;28;20398;-69
2023/05/30 07:40:18;;;;;;;1999.90;999.90;;;14.40;99.90;;;;;;5049894;28;20687;-68
2023/05/30 07:42:44;;;;;;;1999.90;999.90;;;14.30;99.90;;;;;;5051330;28;20465;-68
2023/05/30 07:45:10;;;;;;;1999.90;999.90;;;14.40;99.90;;;;;;5051362;28;20420;-68
2023/05/30 07:47:35;;;;;;;1999.90;999.90;;;14.50;99.90;;;;;;5051810;28;20416;-69
2023/05/30 07:50:01;;;;;;;1999.90;999.90;;;14.50;99.90;;;;;;5051893;28;20227;-68
2023/05/30 07:52:27;;;;;;;1999.90;999.90;;;14.60;99.90;;;;;;5051600;28;20173;-69
2023/05/30 07:54:52;;;;;;;1999.90;999.90;;;14.80;99.90;;;;;;5051778;28;20537;-69
2023/05/30 07:57:18;;;;;;;1999.90;999.90;;;14.80;99.90;;;;;;5051806;28;20155;-68
2023/05/30 07:59:44;;;;;;;1999.90;999.90;;;14.90;99.90;;;;;;5051705;28;20228;-68
2023/05/30 08:02:09;;;;;;;1999.90;999.90;;;15.10;99.90;;;;;;5051439;28;20175;-68
2023/05/30 08:04:36;;;;;;;1999.90;999.90;;;15.10;99.90;;;;;;5051767;28;20180;-69
2023/05/30 08:07:02;;;;;;;1999.90;999.90;;;15.20;99.90;;;;;;5051679;28;20250;-68
2023/05/30 08:09:29;;;;;;;1999.90;999.90;;;15.20;99.90;;;;;;5051564;28;20431;-68
2023/05/30 08:11:54;;;;;;;1999.90;999.90;;;15.30;99.90;;;;;;5051359;28;20495;-69
2023/05/30 08:14:20;;;;;;;1999.90;999.90;;;15.30;99.90;;;;;;5051592;28;20455;-68
2023/05/30 08:16:46;;;;;;;1999.90;999.90;;;15.30;99.90;;;;;;5051556;28;20170;-68
2023/05/30 08:19:12;;;;;;;1999.90;999.90;;;15.40;99.90;;;;;;5051391;28;20255;-68
2023/05/30 08:21:37;;;;;;;1999.90;999.90;;;15.60;99.90;;;;;;5051353;28;20176;-69
2023/05/30 08:24:03;;;;;;;1999.90;999.90;;;15.40;99.90;;;;;;5051583;28;21025;-69
2023/05/30 08:26:32;;;;;;;1999.90;999.90;;;15.40;99.90;;;;;;5051512;28;20254;-68
2023/05/30 08:28:58;;;;;;;1999.90;999.90;;;15.50;99.90;;;;;;5051437;28;20211;-68
2023/05/30 08:31:24;;;;;;;1999.90;999.90;;;15.60;99.90;;;;;;5051234;28;20452;-69
2023/05/30 08:33:50;;;;;;;1999.90;999.90;;;15.70;99.90;;;;;;5051450;28;20410;-69
2023/05/30 08:36:16;;;;;;;1999.90;999.90;;;15.70;99.90;;;;;;5051415;28;20405;-69
2023/05/30 08:38:41;;;;;;;1999.90;999.90;;;15.90;99.90;;;;;;5051382;28;20180;-69
2023/05/30 08:41:07;;;;;;;1999.90;999.90;;;16.00;99.90;;;;;;5051126;28;21326;-69
2023/05/30 08:43:33;;;;;;;1999.90;999.90;;;16.10;99.90;;;;;;5051434;28;20235;-69
2023/05/30 08:45:59;;;;;;;1999.90;999.90;;;15.90;99.90;;;;;;5051415;28;20247;-69
2023/05/30 08:48:28;;;;;;;1999.90;999.90;;;15.90;99.90;;;;;;5051274;28;20412;-69
2023/05/30 08:50:54;;;;;;;1999.90;999.90;;;16.00;99.90;;;;;;5052980;28;20457;-69
2023/05/30 08:53:33;;;;;;;1999.90;999.90;;;16.10;99.90;;;;;;5054865;28;20437;-68
2023/05/30 08:56:05;;;;;;;1999.90;999.90;;;16.30;99.90;;;;;;5055101;28;20171;-69
2023/05/30 08:58:39;;;;;;;1999.90;999.90;;;16.30;99.90;;;;;;5054912;28;20398;-68
2023/05/30 09:01:06;;;;;;;1999.90;999.90;;;16.50;99.90;;;;;;5054651;28;20399;-68
2023/05/30 09:03:33;;;;;;;1999.90;999.90;;;16.50;99.90;;;;;;5054683;28;20416;-68
2023/05/30 09:06:00;;;;;;;1999.90;999.90;;;16.10;99.90;;;;;;5054997;28;20472;-68
2023/05/30 09:08:27;;;;;;;1999.90;999.90;;;15.80;99.90;;;;;;5054666;28;20410;-68
2023/05/30 09:10:56;;;;;;;1999.90;999.90;;;16.10;99.90;;;;;;5054543;28;20872;-69
2023/05/30 09:13:22;;;;;;;1999.90;999.90;;;16.40;99.90;;;;;;5054570;28;20417;-69
2023/05/30 09:15:47;;;;;;;1999.90;999.90;;;16.60;99.90;;;;;;5054603;28;20406;-69
2023/05/30 09:18:13;;;;;;;1999.90;999.90;;;16.80;99.90;;;;;;5054480;28;20185;-69
2023/05/30 09:20:39;;;;;;;1999.90;999.90;;;16.80;99.90;;;;;;5078623;22;20235;-71
2023/05/30 09:23:09;;;;;;;1999.90;999.90;;;16.50;99.90;;;;;;5034297;28;20169;-71
2023/05/30 09:25:54;;;;;;;1999.90;999.90;;;16.60;99.90;;;;;;5034619;28;20251;-72
2023/05/30 09:28:27;;;;;;;1999.90;999.90;;;16.90;99.90;;;;;;5034464;28;20396;-72
2023/05/30 09:31:00;;;;;;;1999.90;999.90;;;17.00;99.90;;;;;;5052459;28;20548;-73
2023/05/30 09:33:45;;;;;;;1999.90;999.90;;;17.20;99.90;;;;;;5054318;28;20398;-72
2023/05/30 09:36:18;;;;;;;1999.90;999.90;;;17.50;99.90;;;;;;5054176;28;20481;-72
2023/05/30 09:38:56;;;;;;;1999.90;999.90;;;17.60;99.90;;;;;;5054281;28;20396;-72
2023/05/30 09:41:26;;;;;;;1999.90;999.90;;;17.50;99.90;;;;;;5053804;28;20419;-72
2023/05/30 09:43:53;;;;;;;1999.90;999.90;;;17.80;99.90;;;;;;5053964;28;20886;-72
2023/05/30 09:46:24;;;;;;;1999.90;999.90;;;18.00;99.80;;;;;;5053921;28;20416;-72
2023/05/30 09:48:50;;;;;;;1999.90;999.90;;;18.20;98.00;;;;;;5054044;28;20417;-72
2023/05/30 09:51:26;;;;;;;1999.90;999.90;;;18.20;98.20;;;;;;5053556;28;20441;-72
2023/05/30 09:54:03;;;;;;;1999.90;999.90;;;18.40;96.90;;;;;;5053475;28;20422;-72
2023/05/30 09:56:51;;;;;;;1999.90;999.90;;;18.40;94.30;;;;;;5053458;28;20485;-73
2023/05/30 09:59:17;;;;;;;1999.90;999.90;;;18.60;93.80;;;;;;5052896;28;20435;-73
2023/05/30 10:01:45;;;;;;;1999.90;999.90;;;18.70;90.90;;;;;;5052993;28;20855;-73
2023/05/30 10:04:11;;;;;;;1999.90;999.90;;;18.80;90.10;;;;;;5053840;28;20181;-72
2023/05/30 10:06:41;;;;;;;1999.90;999.90;;;18.80;91.60;;;;;;5053743;28;20448;-71
2023/05/30 10:09:08;;;;;;;1999.90;999.90;;;18.80;90.10;;;;;;5053415;28;20441;-71
2023/05/30 10:11:35;;;;;;;1999.90;999.90;;;18.90;91.40;;;;;;5053154;28;20446;-70
2023/05/30 10:14:01;;;;;;;1999.90;999.90;;;19.00;89.50;;;;;;5053510;28;20756;-70
2023/05/30 10:16:29;;;;;;;1999.90;999.90;;;18.60;86.10;;;;;;5053307;28;20407;-70
2023/05/30 10:19:01;;;;;;;1999.90;999.90;;;18.70;89.00;;;;;;5053260;28;20171;-70
2023/05/30 10:21:30;;;;;;;1999.90;999.90;;;18.80;87.60;;;;;;5052969;28;20420;-71
2023/05/30 10:23:57;;;;;;;1999.90;999.90;;;18.80;90.50;;;;;;5053320;28;20417;-71
2023/05/30 10:26:34;;;;;;;1999.90;999.90;;;19.10;90.30;;;;;;5049847;28;20435;-71
2023/05/30 10:29:03;;;;;;;1999.90;999.90;;;19.40;86.80;;;;;;5052722;28;20429;-71
2023/05/30 10:31:30;;;;;;;1999.90;999.90;;;19.30;80.00;;;;;;5051958;28;20447;-71
2023/05/30 10:34:01;;;;;;;1999.90;999.90;;;19.30;82.90;;;;;;5052083;28;20418;-71
2023/05/30 10:36:28;;;;;;;1999.90;999.90;;;19.50;84.10;;;;;;5052596;28;20856;-71
2023/05/30 10:39:26;;;;;;;1999.90;999.90;;;19.70;80.80;;;;;;5052434;28;20416;-71
2023/05/30 10:42:00;;;;;;;1999.90;999.90;;;19.80;76.10;;;;;;5050721;28;20423;-71
2023/05/30 10:44:43;;;;;;;1999.90;999.90;;;20.10;75.20;;;;;;5052020;28;20499;-71
2023/05/30 10:47:20;;;;;;;1999.90;999.90;;;20.30;73.00;;;;;;5052394;28;20450;-71
2023/05/30 10:49:48;;;;;;;1999.90;999.90;;;20.50;67.30;;;;;;5052096;28;20459;-71
2023/05/30 10:52:17;;;;;;;1999.90;999.90;;;20.10;60.60;;;;;;5052269;28;20910;-71
2023/05/30 10:54:46;;;;;;;1999.90;999.90;;;20.10;62.10;;;;;;5051637;28;20469;-71
2023/05/30 10:57:26;;;;;;;1999.90;999.90;;;20.20;57.90;;;;;;5051739;28;20388;-71
2023/05/30 11:00:16;;;;;;;1999.90;999.90;;;20.30;59.60;;;;;;5052193;28;20423;-71
2023/05/30 11:02:43;;;;;;;1999.90;999.90;;;20.50;56.80;;;;;;5051088;28;20438;-71
2023/05/30 11:05:10;;;;;;;1999.90;999.90;;;20.80;59.30;;;;;;5051980;28;20379;-71
2023/05/30 11:07:41;;;;;;;1999.90;999.90;;;20.90;50.80;;;;;;5052034;28;20448;-71
2023/05/30 11:10:11;;;;;;;1999.90;999.90;;;20.80;47.60;;;;;;5051420;28;20520;-71
2023/05/30 11:12:44;;;;;;;1999.90;999.90;;;20.90;46.90;;;;;;5051432;28;20930;-71
2023/05/30 11:15:15;;;;;;;1999.90;999.90;;;20.60;42.20;;;;;;5051127;28;20402;-71
2023/05/30 11:17:41;;;;;;;1999.90;999.90;;;20.60;44.30;;;;;;5051271;28;20381;-71
2023/05/30 11:20:14;;;;;;;1999.90;999.90;;;20.50;49.10;;;;;;5051610;28;20462;-71
2023/05/30 11:22:41;;;;;;;1999.90;999.90;;;20.80;44.50;;;;;;5051411;28;20413;-71
2023/05/30 11:25:25;;;;;;;1999.90;999.90;;;21.10;43.40;;;;;;5051204;28;20391;-71
2023/05/30 11:28:12;;;;;;;1999.90;999.90;;;21.00;42.80;;;;;;5051848;28;20423;-71
2023/05/30 11:30:42;;;;;;;1999.90;999.90;;;21.50;41.70;;;;;;5051538;28;21022;-71
2023/05/30 11:33:13;;;;;;;1999.90;999.90;;;21.70;36.10;;;;;;5050928;28;20373;-71
2023/05/30 11:35:38;;;;;;;1999.90;999.90;;;21.50;34.00;;;;;;5051482;28;20479;-71
2023/05/30 11:38:06;;;;;;;1999.90;999.90;;;21.50;29.40;;;;;;5051765;28;20836;-71
2023/05/30 11:40:32;;;;;;;1999.90;999.90;;;21.30;24.90;;;;;;5050836;28;20680;-71
2023/05/30 11:42:58;;;;;;;1999.90;999.90;;;21.50;24.80;;;;;;5051294;28;20419;-71
2023/05/30 11:45:28;;;;;;;1999.90;999.90;;;21.70;25.70;;;;;;5051465;28;20194;-71
2023/05/30 11:48:01;;;;;;;1999.90;999.90;;;21.90;24.30;;;;;;5051036;28;20430;-71
2023/05/30 11:50:27;;;;;;;1999.90;999.90;;;21.70;22.80;;;;;;5051230;28;20867;-71
2023/05/30 11:52:53;;;;;;;1999.90;999.90;;;21.30;21.20;;;;;;5051099;28;20421;-71
2023/05/30 11:55:18;;;;;;;1999.90;999.90;;;21.60;18.90;;;;;;5050878;28;20248;-71
2023/05/30 11:57:44;;;;;;;1999.90;999.90;;;21.90;20.40;;;;;;5051403;28;20624;-71
2023/05/30 12:00:13;;;;;;;1999.90;999.90;;;22.30;22.00;;;;;;5051311;28;20224;-71
2023/05/30 12:02:40;;;;;;;1999.90;999.90;;;22.50;20.30;;;;;;5050385;28;20516;-71